Wetterdaten: Woche 31.10.16 - 06.11.16 (KW44)
Datum Zeit Temp. A. Feuchte A. Luftdruck Regen Wind Richtung Taupunkt Windchill Windben
31.10.2016 00:00 7,3 C 75 % 1029,3 hPa 0,0 l/m 1,6 km/h N 3,0 C 7,3 C 8,0 km/h
31.10.2016 01:00 6,9 C 76 % 1029,4 hPa 0,0 l/m 2,4 km/h N 2,8 C 6,9 C 11,3 km/h
31.10.2016 02:00 6,6 C 76 % 1029,2 hPa 0,0 l/m 1,6 km/h N 2,7 C 6,6 C 10,5 km/h
31.10.2016 03:00 6,1 C 78 % 1029,1 hPa 0,0 l/m 2,4 km/h N 2,6 C 6,1 C 9,6 km/h
31.10.2016 04:00 5,9 C 79 % 1029,0 hPa 0,0 l/m 4,8 km/h N 2,5 C 5,9 C 15,3 km/h
31.10.2016 05:00 5,3 C 80 % 1029,1 hPa 0,0 l/m 0,8 km/h N 2,0 C 5,3 C 8,1 km/h
31.10.2016 06:00 4,7 C 81 % 1029,1 hPa 0,0 l/m 1,4 km/h N 1,8 C 4,7 C 7,0 km/h
31.10.2016 07:00 4,8 C 82 % 1029,7 hPa 0,0 l/m 2,6 km/h N 2,0 C 4,8 C 9,6 km/h
31.10.2016 08:00 6,3 C 80 % 1029,8 hPa 0,0 l/m 4,9 km/h N 3,1 C 6,3 C 15,7 km/h
31.10.2016 09:00 8,2 C 73 % 1029,8 hPa 0,0 l/m 6,2 km/h N 3,7 C 7,9 C 19,3 km/h
31.10.2016 10:00 9,6 C 66 % 1029,6 hPa 0,0 l/m 6,9 km/h N 3,6 C 9,0 C 20,1 km/h
31.10.2016 11:00 10,5 C 62 % 1028,7 hPa 0,0 l/m 6,2 km/h N 3,5 C 10,3 C 20,1 km/h
31.10.2016 12:00 11,3 C 56 % 1028,2 hPa 0,0 l/m 5,4 km/h N 2,7 C 11,3 C 17,3 km/h
31.10.2016 13:00 11,8 C 51 % 1027,9 hPa 0,0 l/m 4,8 km/h N 1,9 C 11,8 C 17,7 km/h
31.10.2016 14:00 12,1 C 51 % 1027,3 hPa 0,0 l/m 3,2 km/h N 2,3 C 12,1 C 14,1 km/h
31.10.2016 15:00 11,9 C 55 % 1026,4 hPa 0,0 l/m 2,6 km/h N 3,1 C 11,9 C 10,5 km/h
31.10.2016 16:00 11,0 C 61 % 1026,3 hPa 0,0 l/m 0,3 km/h N 3,7 C 11,0 C 4,0 km/h
31.10.2016 17:00 8,7 C 67 % 1026,8 hPa 0,0 l/m 0,0 km/h N 2,8 C 8,7 C 0,0 km/h
31.10.2016 18:00 6,3 C 73 % 1027,2 hPa 0,0 l/m 0,0 km/h N 1,7 C 6,3 C 0,0 km/h
31.10.2016 19:00 4,9 C 78 % 1027,3 hPa 0,0 l/m 0,0 km/h N 1,4 C 4,9 C 0,0 km/h
31.10.2016 20:00 4,2 C 80 % 1027,1 hPa 0,0 l/m 0,0 km/h N 1,0 C 4,2 C 0,0 km/h
31.10.2016 21:00 3,9 C 82 % 1027,1 hPa 0,0 l/m 0,0 km/h N 1,1 C 3,9 C 0,8 km/h
31.10.2016 22:00 4,3 C 83 % 1026,7 hPa 0,0 l/m 0,0 km/h N 1,6 C 4,3 C 0,0 km/h
31.10.2016 23:00 4,5 C 83 % 1026,2 hPa 0,0 l/m 0,0 km/h N 1,9 C 4,5 C 0,4 km/h
01.11.2016 00:00 5,2 C 83 % 1025,8 hPa 0,0 l/m 0,0 km/h N 2,6 C 5,2 C 0,0 km/h
01.11.2016 01:00 6,5 C 82 % 1025,5 hPa 0,0 l/m 0,0 km/h N 3,7 C 6,5 C 0,8 km/h
01.11.2016 02:00 7,0 C 79 % 1025,1 hPa 0,0 l/m 0,2 km/h N 3,6 C 7,0 C 2,4 km/h
01.11.2016 03:00 7,4 C 75 % 1024,4 hPa 0,0 l/m 0,1 km/h N 3,2 C 7,4 C 2,4 km/h
01.11.2016 04:00 7,6 C 77 % 1024,3 hPa 0,0 l/m 0,0 km/h N 3,8 C 7,6 C 0,4 km/h
01.11.2016 05:00 7,2 C 77 % 1024,5 hPa 0,0 l/m 0,0 km/h N 3,4 C 7,2 C 0,8 km/h
01.11.2016 06:00 6,8 C 78 % 1024,7 hPa 0,0 l/m 0,0 km/h N 3,2 C 6,8 C 0,4 km/h
01.11.2016 07:00 6,7 C 81 % 1024,8 hPa 0,0 l/m 0,0 km/h N 3,6 C 6,7 C 0,0 km/h
01.11.2016 08:00 7,6 C 82 % 1024,7 hPa 0,0 l/m 0,0 km/h N 4,7 C 7,6 C 0,4 km/h
01.11.2016 09:00 9,4 C 79 % 1024,2 hPa 0,0 l/m 0,0 km/h N 6,0 C 9,4 C 0,4 km/h
01.11.2016 10:00 12,1 C 66 % 1023,7 hPa 0,0 l/m 0,0 km/h N 5,8 C 12,1 C 1,6 km/h
01.11.2016 11:00 14,6 C 53 % 1022,8 hPa 0,0 l/m 0,6 km/h N 5,2 C 14,6 C 5,6 km/h
01.11.2016 12:00 15,7 C 47 % 1021,6 hPa 0,0 l/m 0,8 km/h N 4,3 C 15,7 C 5,6 km/h
01.11.2016 13:00 15,9 C 48 % 1020,6 hPa 0,0 l/m 0,4 km/h N 4,9 C 15,9 C 4,4 km/h
01.11.2016 14:00 16,1 C 50 % 1019,8 hPa 0,0 l/m 0,3 km/h N 5,6 C 16,1 C 4,8 km/h
01.11.2016 15:00 15,1 C 53 % 1019,0 hPa 0,0 l/m 0,3 km/h N 5,4 C 15,1 C 4,8 km/h
01.11.2016 16:00 13,5 C 55 % 1018,3 hPa 0,0 l/m 0,1 km/h N 4,7 C 13,5 C 0,8 km/h
01.11.2016 17:00 10,8 C 63 % 1017,8 hPa 0,0 l/m 0,0 km/h N 3,9 C 10,8 C 0,0 km/h
01.11.2016 18:00 8,1 C 72 % 1017,3 hPa 0,0 l/m 0,0 km/h N 3,4 C 8,1 C 0,4 km/h
01.11.2016 19:00 6,5 C 79 % 1016,6 hPa 0,0 l/m 0,1 km/h N 3,0 C 6,5 C 1,2 km/h
01.11.2016 20:00 5,4 C 81 % 1016,0 hPa 0,0 l/m 0,0 km/h N 2,4 C 5,4 C 0,8 km/h
01.11.2016 21:00 4,9 C 83 % 1015,6 hPa 0,0 l/m 0,0 km/h N 2,2 C 4,9 C 0,8 km/h
01.11.2016 22:00 4,9 C 83 % 1015,0 hPa 0,0 l/m 0,0 km/h N 2,3 C 4,9 C 0,0 km/h
01.11.2016 23:00 4,7 C 83 % 1014,4 hPa 0,0 l/m 0,0 km/h N 2,1 C 4,7 C 0,4 km/h
02.11.2016 00:00 4,6 C 83 % 1013,9 hPa 0,0 l/m 0,0 km/h N 2,0 C 4,6 C 0,8 km/h
02.11.2016 01:00 4,7 C 83 % 1013,3 hPa 0,0 l/m 0,0 km/h N 2,0 C 4,7 C 2,0 km/h
02.11.2016 02:00 9,4 C 80 % 1012,5 hPa 0,0 l/m 4,7 km/h N 6,1 C 9,1 C 18,9 km/h
02.11.2016 03:00 13,3 C 67 % 1012,1 hPa 0,0 l/m 5,3 km/h N 7,2 C 13,1 C 20,1 km/h
02.11.2016 04:00 12,9 C 67 % 1012,2 hPa 0,0 l/m 6,1 km/h N 7,0 C 12,9 C 24,5 km/h
02.11.2016 05:00 12,5 C 70 % 1012,3 hPa 0,0 l/m 9,1 km/h N 7,2 C 10,9 C 27,8 km/h
02.11.2016 06:00 12,1 C 71 % 1012,7 hPa 0,0 l/m 12,3 km/h N 7,0 C 8,8 C 33,0 km/h
02.11.2016 07:00 11,6 C 73 % 1013,0 hPa 0,0 l/m 10,6 km/h N 7,0 C 9,2 C 31,8 km/h
02.11.2016 08:00 11,3 C 75 % 1013,4 hPa 0,0 l/m 10,8 km/h N 7,0 C 8,7 C 26,8 km/h
02.11.2016 09:00 11,3 C 74 % 1013,2 hPa 0,0 l/m 10,1 km/h N 6,9 C 9,0 C 32,6 km/h
02.11.2016 10:00 11,9 C 73 % 1013,4 hPa 0,0 l/m 12,2 km/h N 7,1 C 8,7 C 31,0 km/h
02.11.2016 11:00 11,6 C 75 % 1013,4 hPa 0,0 l/m 11,7 km/h N 7,2 C 8,6 C 27,7 km/h
02.11.2016 12:00 9,8 C 81 % 1013,7 hPa 1,0 l/m 2,9 km/h N 6,8 C 9,8 C 14,5 km/h
02.11.2016 13:00 7,9 C 83 % 1013,9 hPa 1,3 l/m 4,1 km/h N 5,2 C 7,9 C 16,1 km/h
02.11.2016 14:00 7,6 C 83 % 1013,8 hPa 1,6 l/m 1,9 km/h N 4,9 C 7,6 C 10,1 km/h
02.11.2016 15:00 7,4 C 83 % 1014,0 hPa 1,3 l/m 2,0 km/h N 4,7 C 7,4 C 9,3 km/h
02.11.2016 16:00 7,3 C 83 % 1014,3 hPa 1,3 l/m 2,3 km/h N 4,6 C 7,3 C 9,6 km/h
02.11.2016 17:00 7,1 C 83 % 1014,5 hPa 0,5 l/m 1,6 km/h N 4,5 C 7,1 C 9,6 km/h
02.11.2016 18:00 7,2 C 83 % 1015,1 hPa 0,3 l/m 5,2 km/h N 4,5 C 6,9 C 16,5 km/h
02.11.2016 19:00 7,2 C 81 % 1015,3 hPa 0,0 l/m 6,2 km/h N 4,1 C 7,0 C 27,8 km/h
02.11.2016 20:00 6,9 C 79 % 1015,8 hPa 0,0 l/m 4,7 km/h N 3,4 C 6,9 C 22,5 km/h
02.11.2016 21:00 6,9 C 77 % 1015,9 hPa 0,0 l/m 5,1 km/h N 3,2 C 6,9 C 22,5 km/h
02.11.2016 22:00 7,1 C 76 % 1015,8 hPa 0,0 l/m 5,3 km/h N 3,1 C 7,1 C 25,3 km/h
02.11.2016 23:00 7,7 C 73 % 1016,0 hPa 0,0 l/m 6,2 km/h N 3,1 C 7,5 C 24,1 km/h
03.11.2016 00:00 7,5 C 72 % 1016,6 hPa 0,0 l/m 7,4 km/h N 2,8 C 6,5 C 26,6 km/h
03.11.2016 01:00 7,6 C 74 % 1016,9 hPa 0,0 l/m 10,5 km/h N 3,1 C 4,7 C 28,6 km/h
03.11.2016 02:00 7,3 C 74 % 1016,1 hPa 0,0 l/m 12,1 km/h N 3,0 C 3,4 C 29,8 km/h
03.11.2016 03:00 7,3 C 74 % 1016,0 hPa 0,0 l/m 10,9 km/h N 3,0 C 4,1 C 27,3 km/h
03.11.2016 04:00 7,3 C 73 % 1016,5 hPa 0,0 l/m 10,4 km/h N 2,8 C 4,3 C 29,4 km/h
03.11.2016 05:00 7,2 C 73 % 1016,8 hPa 0,0 l/m 7,4 km/h N 2,6 C 6,1 C 25,8 km/h
03.11.2016 06:00 7,0 C 71 % 1017,0 hPa 0,0 l/m 10,6 km/h N 2,2 C 4,0 C 29,0 km/h
03.11.2016 07:00 6,8 C 73 % 1018,5 hPa 0,0 l/m 10,1 km/h N 2,4 C 4,0 C 25,3 km/h
03.11.2016 08:00 4,9 C 80 % 1020,3 hPa 0,3 l/m 7,4 km/h N 1,7 C 4,0 C 22,5 km/h
03.11.2016 09:00 4,2 C 82 % 1020,9 hPa 0,5 l/m 5,1 km/h N 1,5 C 4,2 C 17,3 km/h
03.11.2016 10:00 5,2 C 82 % 1021,3 hPa 0,0 l/m 4,8 km/h N 2,3 C 5,2 C 16,1 km/h
03.11.2016 11:00 6,4 C 79 % 1021,1 hPa 0,0 l/m 5,7 km/h N 3,1 C 6,3 C 17,7 km/h
03.11.2016 12:00 7,7 C 74 % 1020,8 hPa 0,0 l/m 8,2 km/h N 3,4 C 6,3 C 22,1 km/h
03.11.2016 13:00 8,4 C 67 % 1020,6 hPa 0,0 l/m 8,6 km/h N 2,7 C 6,8 C 22,9 km/h
03.11.2016 14:00 9,0 C 65 % 1020,6 hPa 0,0 l/m 6,7 km/h N 2,8 C 8,6 C 20,9 km/h
03.11.2016 15:00 8,7 C 64 % 1021,2 hPa 0,0 l/m 5,1 km/h N 2,3 C 8,4 C 17,3 km/h
03.11.2016 16:00 7,7 C 68 % 1021,8 hPa 0,0 l/m 1,4 km/h N 2,1 C 7,7 C 9,3 km/h
03.11.2016 17:00 6,2 C 74 % 1022,4 hPa 0,0 l/m 0,0 km/h N 2,0 C 6,2 C 2,4 km/h
03.11.2016 18:00 5,3 C 79 % 1023,0 hPa 0,0 l/m 0,0 km/h N 1,8 C 5,3 C 0,8 km/h
03.11.2016 19:00 4,4 C 80 % 1023,3 hPa 0,0 l/m 0,0 km/h N 1,3 C 4,4 C 1,6 km/h
03.11.2016 20:00 3,4 C 81 % 1023,8 hPa 0,0 l/m 0,0 km/h N 0,5 C 3,4 C 0,0 km/h
03.11.2016 21:00 2,1 C 82 % 1024,3 hPa 0,0 l/m 0,0 km/h N -0,6 C 2,1 C 0,0 km/h
03.11.2016 22:00 1,1 C 83 % 1024,3 hPa 0,0 l/m 0,0 km/h N -1,4 C 1,1 C 0,0 km/h
03.11.2016 23:00 0,5 C 84 % 1024,2 hPa 0,0 l/m 0,0 km/h N -1,9 C 0,5 C 0,0 km/h
04.11.2016 00:00 -0,2 C 84 % 1023,7 hPa 0,0 l/m 0,0 km/h N -2,5 C -0,2 C 0,0 km/h
04.11.2016 01:00 -0,5 C 84 % 1023,3 hPa 0,0 l/m 0,0 km/h N -2,8 C -0,5 C 0,4 km/h
04.11.2016 02:00 -1,2 C 84 % 1023,0 hPa 0,0 l/m 0,0 km/h N -3,5 C -1,2 C 0,4 km/h
04.11.2016 03:00 -1,4 C 84 % 1022,8 hPa 0,0 l/m 0,0 km/h N -3,8 C -1,4 C 0,0 km/h
04.11.2016 04:00 -1,9 C 84 % 1022,5 hPa 0,0 l/m 0,0 km/h N -4,2 C -1,9 C 0,0 km/h
04.11.2016 05:00 -2,2 C 84 % 1022,1 hPa 0,0 l/m 0,0 km/h N -4,5 C -2,2 C 0,0 km/h
04.11.2016 06:00 -2,3 C 84 % 1021,7 hPa 0,0 l/m 0,0 km/h N -4,7 C -2,3 C 0,0 km/h
04.11.2016 07:00 -2,3 C 84 % 1021,8 hPa 0,0 l/m 0,0 km/h N -4,6 C -2,3 C 0,0 km/h
04.11.2016 08:00 -0,3 C 84 % 1021,7 hPa 0,3 l/m 0,0 km/h N -2,6 C -0,3 C 0,4 km/h
04.11.2016 09:00 1,8 C 84 % 1021,5 hPa 0,0 l/m 0,0 km/h N -0,7 C 1,8 C 2,0 km/h
04.11.2016 10:00 2,7 C 84 % 1021,4 hPa 0,0 l/m 0,0 km/h N 0,3 C 2,7 C 2,0 km/h
04.11.2016 11:00 3,6 C 84 % 1020,8 hPa 0,0 l/m 0,6 km/h N 1,1 C 3,6 C 4,8 km/h
04.11.2016 12:00 4,3 C 84 % 1020,1 hPa 0,0 l/m 0,2 km/h N 1,7 C 4,3 C 2,8 km/h
04.11.2016 13:00 4,7 C 83 % 1019,3 hPa 0,0 l/m 0,1 km/h N 2,1 C 4,7 C 2,0 km/h
04.11.2016 14:00 5,4 C 84 % 1018,5 hPa 0,0 l/m 0,0 km/h N 2,8 C 5,4 C 1,2 km/h
04.11.2016 15:00 5,8 C 83 % 1017,8 hPa 0,0 l/m 0,0 km/h N 3,2 C 5,8 C 0,4 km/h
04.11.2016 16:00 5,4 C 83 % 1017,4 hPa 0,0 l/m 0,0 km/h N 2,7 C 5,4 C 0,0 km/h
04.11.2016 17:00 3,8 C 82 % 1017,0 hPa 0,0 l/m 0,0 km/h N 1,0 C 3,8 C 0,0 km/h
04.11.2016 18:00 2,5 C 83 % 1016,9 hPa 0,0 l/m 0,0 km/h N -0,1 C 2,5 C 0,0 km/h
04.11.2016 19:00 1,5 C 84 % 1016,4 hPa 0,0 l/m 0,0 km/h N -1,0 C 1,5 C 0,0 km/h
04.11.2016 20:00 0,9 C 84 % 1016,0 hPa 0,0 l/m 0,0 km/h N -1,5 C 0,9 C 1,2 km/h
04.11.2016 21:00 1,1 C 84 % 1015,7 hPa 0,0 l/m 0,0 km/h N -1,2 C 1,1 C 0,0 km/h
04.11.2016 22:00 1,8 C 84 % 1015,2 hPa 0,0 l/m 0,0 km/h N -0,6 C 1,8 C 0,0 km/h
04.11.2016 23:00 2,3 C 84 % 1014,9 hPa 0,0 l/m 0,0 km/h N -0,2 C 2,3 C 0,4 km/h
05.11.2016 00:00 2,0 C 84 % 1014,6 hPa 0,0 l/m 0,0 km/h N -0,5 C 2,0 C 0,4 km/h
05.11.2016 01:00 1,3 C 84 % 1014,4 hPa 0,0 l/m 0,0 km/h N -1,1 C 1,3 C 0,0 km/h
05.11.2016 02:00 0,8 C 84 % 1013,8 hPa 0,0 l/m 0,0 km/h N -1,6 C 0,8 C 0,0 km/h
05.11.2016 03:00 0,9 C 84 % 1013,3 hPa 0,0 l/m 0,0 km/h N -1,5 C 0,9 C 1,2 km/h
05.11.2016 04:00 1,3 C 84 % 1013,1 hPa 0,0 l/m 0,0 km/h N -1,1 C 1,3 C 0,8 km/h
05.11.2016 05:00 1,4 C 84 % 1013,0 hPa 0,0 l/m 0,0 km/h N -1,0 C 1,4 C 0,4 km/h
05.11.2016 06:00 1,8 C 84 % 1012,6 hPa 0,0 l/m 0,0 km/h N -0,7 C 1,8 C 1,6 km/h
05.11.2016 07:00 2,2 C 84 % 1012,3 hPa 0,0 l/m 0,1 km/h N -0,2 C 2,2 C 2,4 km/h
05.11.2016 08:00 2,3 C 84 % 1011,9 hPa 0,0 l/m 0,8 km/h N -0,1 C 2,3 C 6,0 km/h
05.11.2016 09:00 2,2 C 84 % 1011,4 hPa 0,0 l/m 0,8 km/h N -0,2 C 2,2 C 6,4 km/h
05.11.2016 10:00 2,4 C 84 % 1010,7 hPa 0,0 l/m 0,4 km/h N -0,0 C 2,4 C 5,6 km/h
05.11.2016 11:00 3,0 C 84 % 1009,5 hPa 0,0 l/m 0,2 km/h N 0,6 C 3,0 C 3,6 km/h
05.11.2016 12:00 3,4 C 84 % 1008,4 hPa 0,0 l/m 0,2 km/h N 1,0 C 3,4 C 3,6 km/h
05.11.2016 13:00 3,8 C 84 % 1007,0 hPa 0,0 l/m 0,0 km/h N 1,3 C 3,8 C 2,0 km/h
05.11.2016 14:00 4,7 C 84 % 1005,6 hPa 0,0 l/m 0,0 km/h N 2,1 C 4,7 C 1,6 km/h
05.11.2016 15:00 5,3 C 84 % 1004,4 hPa 0,0 l/m 0,0 km/h N 2,8 C 5,3 C 0,4 km/h
05.11.2016 16:00 5,2 C 84 % 1003,3 hPa 0,0 l/m 0,0 km/h N 2,7 C 5,2 C 0,0 km/h
05.11.2016 17:00 4,9 C 84 % 1002,7 hPa 0,0 l/m 0,0 km/h N 2,5 C 4,9 C 0,0 km/h
05.11.2016 18:00 5,1 C 84 % 1001,9 hPa 0,0 l/m 0,0 km/h N 2,6 C 5,1 C 0,0 km/h
05.11.2016 19:00 5,6 C 83 % 1000,6 hPa 0,5 l/m 0,1 km/h N 3,0 C 5,6 C 3,2 km/h
05.11.2016 20:00 6,9 C 83 % 999,4 hPa 0,0 l/m 0,0 km/h N 4,2 C 6,9 C 1,2 km/h
05.11.2016 21:00 9,2 C 83 % 998,4 hPa 0,0 l/m 1,6 km/h N 6,4 C 9,2 C 8,5 km/h
05.11.2016 22:00 10,8 C 83 % 997,9 hPa 0,0 l/m 0,5 km/h N 8,0 C 10,8 C 4,8 km/h
05.11.2016 23:00 9,1 C 83 % 998,2 hPa 0,3 l/m 1,8 km/h N 6,3 C 9,1 C 6,4 km/h
06.11.2016 00:00 7,1 C 83 % 998,5 hPa 0,0 l/m 0,8 km/h N 4,4 C 7,1 C 4,8 km/h
06.11.2016 01:00 6,9 C 83 % 998,7 hPa 0,3 l/m 1,2 km/h N 4,3 C 6,9 C 7,2 km/h
06.11.2016 02:00 6,9 C 84 % 998,7 hPa 0,3 l/m 0,1 km/h N 4,3 C 6,9 C 1,6 km/h
06.11.2016 03:00 6,7 C 83 % 998,7 hPa 0,3 l/m 0,0 km/h N 4,0 C 6,7 C 0,8 km/h
06.11.2016 04:00 6,9 C 83 % 999,2 hPa 0,5 l/m 0,0 km/h N 4,2 C 6,9 C 1,6 km/h
06.11.2016 05:00 8,4 C 83 % 999,1 hPa 0,3 l/m 4,7 km/h N 5,7 C 8,0 C 14,5 km/h
06.11.2016 06:00 8,4 C 83 % 999,5 hPa 0,0 l/m 4,4 km/h N 5,7 C 8,4 C 13,7 km/h
06.11.2016 07:00 8,1 C 83 % 999,8 hPa 0,3 l/m 1,1 km/h N 5,4 C 8,1 C 8,8 km/h
06.11.2016 08:00 8,0 C 83 % 999,7 hPa 0,0 l/m 0,9 km/h N 5,3 C 8,0 C 6,4 km/h
06.11.2016 09:00 8,3 C 83 % 999,5 hPa 0,0 l/m 1,0 km/h N 5,6 C 8,3 C 8,1 km/h
06.11.2016 10:00 8,4 C 83 % 999,0 hPa 0,0 l/m 1,6 km/h N 5,7 C 8,4 C 8,4 km/h
06.11.2016 11:00 8,4 C 83 % 998,8 hPa 0,5 l/m 1,2 km/h N 5,7 C 8,4 C 7,3 km/h
06.11.2016 12:00 8,3 C 83 % 998,6 hPa 0,8 l/m 1,0 km/h N 5,6 C 8,3 C 7,2 km/h
06.11.2016 13:00 8,0 C 83 % 998,2 hPa 1,0 l/m 4,5 km/h N 5,3 C 8,0 C 13,3 km/h
06.11.2016 14:00 7,5 C 83 % 998,4 hPa 2,9 l/m 5,5 km/h N 4,8 C 7,4 C 16,5 km/h
06.11.2016 15:00 7,0 C 83 % 998,7 hPa 1,0 l/m 5,3 km/h N 4,3 C 7,0 C 13,3 km/h
06.11.2016 16:00 6,6 C 83 % 999,0 hPa 0,3 l/m 3,2 km/h N 3,9 C 6,6 C 12,9 km/h
06.11.2016 17:00 6,3 C 84 % 999,7 hPa 0,8 l/m 6,4 km/h N 3,7 C 5,9 C 21,3 km/h
06.11.2016 18:00 5,4 C 84 % 1000,5 hPa 4,7 l/m 6,1 km/h N 2,9 C 5,1 C 20,5 km/h
06.11.2016 19:00 4,8 C 84 % 1000,6 hPa 1,3 l/m 6,1 km/h N 2,3 C 4,6 C 17,7 km/h
06.11.2016 20:00 4,7 C 84 % 1000,8 hPa 0,0 l/m 6,2 km/h N 2,2 C 4,3 C 18,9 km/h
06.11.2016 21:00 4,5 C 84 % 1001,2 hPa 0,0 l/m 5,6 km/h N 2,0 C 4,3 C 17,7 km/h
06.11.2016 22:00 4,0 C 84 % 1001,3 hPa 0,8 l/m 8,7 km/h N 1,6 C 2,0 C 23,7 km/h
06.11.2016 23:00 3,8 C 84 % 1001,7 hPa 0,5 l/m 9,0 km/h N 1,4 C 1,6 C 22,9 km/h
Min-Datum _ 04.11.16 01.11.16 05.11.16 - 31.10.16 - 04.11.16 04.11.16 31.10.16
_ Min-Zeit 07:15 12:15 22:00 - 05:30 - 07:15 07:15 16:45
Minimum _ -2,6 C 45 % 997,9 hPa - 0,0 km/h - -4,9 C -2,6 C 0,0 km/h
Max-Datum _ 01.11.16 03.11.16 31.10.16 06.11.16 02.11.16 - 02.11.16 01.11.16 02.11.16
_ Max-Zeit 14:15 23:30 08:30 18:15 10:45 - 02:30 14:15 07:00
Maximum _ 16,3 C 84 % 1029,9 hPa 4,7 l/m 15,7 km/h
N
- 8,3 C 16,3 C 37,0 km/h
N
Durchschnitt _ 6,3 C 78 % 1015,7 hPa #25,5 l/m 2,5 km/h N 2,6 C 5,9 C 8,9 km/h